CheckWX is a tool to help pilots better visualize weather data.  It is not intended as a substitute for an official pre-flight weather briefing.

02:12:51 UTC

KMTJ METAR
Montrose Regional Airport
Montrose, Colorado, USA
Current

20 mins ago

KMTJ 200153Z AUTO 30007KT 10SM CLR 28/01 A3013 RMK AO2 SLP119 T02780006
Observed
Aug-20 @ 01:53 UTC
Wind
  • 300° at 7 KTS
Visibility
10 SM
Flight Rules
VFR
Cloud Levels
  • Clear skies
Temperature
28°C / 82°F
Dewpoint
C / 34°F
Humidity
17%
Altimeter
30.13" Hg
Pressure
1020.32 hPa
Previous

1 hour ago

KMTJ 200053Z AUTO 35003KT 10SM CLR 32/M02 A3012 RMK AO2 SLP115 T03171017
Observed
Aug-20 @ 00:53 UTC
Wind
  • 350° at 3 KTS
Visibility
10 SM
Flight Rules
VFR
Cloud Levels
  • Clear skies
Temperature
32°C / 90°F
Dewpoint
-2°C / 28°F
Humidity
11%
Altimeter
30.12" Hg
Pressure
1020.02 hPa
Previous

2 hours ago

KMTJ 192353Z AUTO 36007KT 10SM CLR 33/M01 A3013 RMK AO2 SLP111 T03281006 10333 20294 56009
Observed
Aug-19 @ 23:53 UTC
Wind
  • 360° at 7 KTS
Visibility
10 SM
Flight Rules
VFR
Cloud Levels
  • Clear skies
Temperature
33°C / 91°F
Dewpoint
-1°C / 30°F
Humidity
11%
Altimeter
30.13" Hg
Pressure
1020.32 hPa